Time;durP1;ratioP1;P1;durP2;ratioP2;P2;SDS_P1;SDS_P2;PMS_P1;PMS_P2;Temp;Humidity;BMP_temperature;BMP_pressure;BME280_temperature;BME280_humidity;BME280_pressure;Samples;Min_cycle;Max_cycle;Signal;HPM_P1;HPM_P2
2020/12/19 00:00:25;;;;;;;30.33;13.90;;;3.70;99.90;;;;;;4949806;28;20534;-87
2020/12/19 00:02:53;;;;;;;29.17;13.63;;;3.70;99.90;;;;;;4947993;28;20824;-86
2020/12/19 00:05:19;;;;;;;49.03;12.97;;;3.70;99.90;;;;;;4934012;29;20487;-88
2020/12/19 00:07:44;;;;;;;40.50;13.40;;;3.70;99.90;;;;;;4931341;29;21081;-87
2020/12/19 00:10:28;;;;;;;30.87;13.50;;;3.70;99.90;;;;;;4947313;28;20214;-88
2020/12/19 00:12:59;;;;;;;45.90;13.40;;;3.80;99.90;;;;;;4960987;28;20195;-87
2020/12/19 00:15:30;;;;;;;27.93;14.67;;;3.70;99.90;;;;;;4950273;28;20502;-88
2020/12/19 00:18:09;;;;;;;75.90;16.90;;;3.60;99.90;;;;;;4964750;28;20939;-86
2020/12/19 00:24:36;;;;;;;46.80;14.63;;;3.60;99.90;;;;;;4952234;28;20497;-87
2020/12/19 00:27:16;;;;;;;52.00;14.73;;;3.60;99.90;;;;;;4949630;28;20435;-88
2020/12/19 00:30:08;;;;;;;44.23;15.90;;;3.50;99.90;;;;;;4947836;28;21361;-85
2020/12/19 00:32:57;;;;;;;37.00;15.10;;;3.60;99.90;;;;;;4948318;28;20442;-86
2020/12/19 00:35:44;;;;;;;42.67;13.33;;;3.70;99.90;;;;;;4947804;28;20443;-87
2020/12/19 00:38:19;;;;;;;37.27;14.30;;;3.80;99.90;;;;;;4933988;29;20430;-85
2020/12/19 00:40:50;;;;;;;31.10;14.17;;;3.80;99.90;;;;;;5066060;23;20504;-87
2020/12/19 00:43:18;;;;;;;27.30;15.67;;;3.80;99.90;;;;;;4967381;28;20441;-87
2020/12/19 00:46:07;;;;;;;35.27;15.00;;;3.80;99.90;;;;;;4967241;28;20524;-86
2020/12/19 00:48:43;;;;;;;31.53;15.83;;;3.70;99.90;;;;;;4952501;28;20458;-87
2020/12/19 00:51:34;;;;;;;22.13;14.23;;;3.70;99.90;;;;;;4948687;28;20437;-87
2020/12/19 00:54:04;;;;;;;31.20;12.27;;;3.80;99.90;;;;;;4947853;28;20455;-87
2020/12/19 00:56:38;;;;;;;25.33;14.30;;;3.90;99.90;;;;;;4949029;28;20869;-88
2020/12/19 00:59:23;;;;;;;25.23;14.20;;;3.90;99.90;;;;;;4938170;28;20467;-87
2020/12/19 01:01:52;;;;;;;22.77;14.03;;;3.90;99.90;;;;;;4931993;28;20447;-86
2020/12/19 01:04:35;;;;;;;23.10;14.40;;;3.90;99.90;;;;;;4944028;28;20563;-87
2020/12/19 01:07:06;;;;;;;22.00;13.67;;;4.00;99.90;;;;;;4948107;28;20458;-88
2020/12/19 01:10:01;;;;;;;28.27;14.67;;;4.00;99.90;;;;;;4931625;28;20501;-87
2020/12/19 01:12:40;;;;;;;21.47;13.33;;;4.00;99.90;;;;;;4948382;28;20467;-86
2020/12/19 01:15:26;;;;;;;27.57;14.50;;;4.00;99.90;;;;;;4935134;28;20541;-89
2020/12/19 01:18:02;;;;;;;29.30;14.70;;;4.00;99.90;;;;;;4937841;28;20791;-85
2020/12/19 01:20:31;;;;;;;26.17;17.10;;;4.10;99.90;;;;;;4926244;28;20487;-87
2020/12/19 01:23:16;;;;;;;24.47;15.30;;;4.10;99.90;;;;;;4954594;28;20450;-87
2020/12/19 01:25:47;;;;;;;26.97;15.93;;;4.20;99.90;;;;;;4938558;28;20930;-88
2020/12/19 01:28:20;;;;;;;28.93;16.63;;;4.30;99.90;;;;;;4941023;28;20814;-87
2020/12/19 01:30:58;;;;;;;24.87;16.80;;;4.30;99.90;;;;;;4940988;28;20463;-88
2020/12/19 01:33:24;;;;;;;24.87;14.70;;;4.30;99.90;;;;;;4936658;28;20981;-86
2020/12/19 01:35:56;;;;;;;21.90;15.00;;;4.30;99.90;;;;;;4945474;28;20423;-87
2020/12/19 01:41:17;;;;;;;28.97;15.70;;;4.40;99.90;;;;;;5014819;23;21571;-88
2020/12/19 01:43:59;;;;;;;23.50;15.20;;;4.40;99.90;;;;;;4956339;28;20461;-88
2020/12/19 01:47:14;;;;;;;27.03;16.30;;;4.40;99.90;;;;;;4951749;28;20491;-88
2020/12/19 01:49:43;;;;;;;25.47;15.53;;;4.40;99.90;;;;;;4954694;28;21017;-88
2020/12/19 01:52:11;;;;;;;21.73;15.10;;;4.50;99.90;;;;;;4951423;29;20466;-87
2020/12/19 01:54:38;;;;;;;21.17;15.77;;;4.50;99.90;;;;;;4955454;28;20542;-88
2020/12/19 01:57:14;;;;;;;22.47;15.77;;;4.50;99.90;;;;;;4933670;29;20475;-85
2020/12/19 01:59:47;;;;;;;28.10;14.67;;;4.50;99.90;;;;;;4951583;28;20447;-86
2020/12/19 02:02:24;;;;;;;24.97;15.63;;;4.50;99.90;;;;;;4954975;29;21441;-88
2020/12/19 02:04:56;;;;;;;21.43;14.47;;;4.60;99.90;;;;;;4939665;29;20477;-88
2020/12/19 02:07:40;;;;;;;25.03;14.77;;;4.50;99.90;;;;;;4954387;28;20441;-88
2020/12/19 02:10:12;;;;;;;25.27;14.67;;;4.40;99.90;;;;;;4952322;29;20490;-87
2020/12/19 02:13:12;;;;;;;25.20;15.37;;;4.40;99.90;;;;;;4949397;28;20451;-89
2020/12/19 02:15:53;;;;;;;24.93;15.30;;;4.40;99.90;;;;;;4951720;28;20439;-88
2020/12/19 02:21:10;;;;;;;26.03;14.80;;;4.50;99.90;;;;;;4951294;28;20550;-89
2020/12/19 02:23:36;;;;;;;24.03;15.10;;;4.60;99.90;;;;;;4950981;28;20579;-87
2020/12/19 02:26:04;;;;;;;24.40;15.50;;;4.50;99.90;;;;;;4950484;28;20443;-88
2020/12/19 02:28:33;;;;;;;22.70;14.67;;;4.60;99.90;;;;;;4963962;28;20191;-86
2020/12/19 02:31:04;;;;;;;20.70;15.10;;;4.60;99.90;;;;;;4950311;29;20474;-86
2020/12/19 02:33:39;;;;;;;25.30;14.63;;;4.60;99.90;;;;;;4952329;28;20430;-87
2020/12/19 02:39:15;;;;;;;21.43;13.47;;;4.60;99.90;;;;;;4950674;29;20483;-88
2020/12/19 02:42:02;;;;;;;17.93;13.53;;;4.60;99.90;;;;;;4952287;28;20525;-87
2020/12/19 02:44:34;;;;;;;25.00;14.37;;;4.50;99.90;;;;;;4956589;28;21183;-84
2020/12/19 02:47:05;;;;;;;20.70;13.90;;;4.30;99.90;;;;;;4951918;28;20811;-87
2020/12/19 02:49:36;;;;;;;19.03;13.87;;;4.30;99.90;;;;;;4938263;29;20522;-85
2020/12/19 02:52:16;;;;;;;20.57;14.13;;;4.30;99.90;;;;;;4951633;28;20448;-85
2020/12/19 02:55:07;;;;;;;19.67;13.73;;;4.30;99.90;;;;;;4952311;28;20854;-87
2020/12/19 02:57:41;;;;;;;21.83;14.50;;;4.30;99.90;;;;;;4967831;28;20459;-87
2020/12/19 03:00:06;;;;;;;20.63;16.00;;;4.30;99.90;;;;;;4953144;28;20520;-87
2020/12/19 03:02:54;;;;;;;20.30;14.43;;;4.30;99.90;;;;;;4936928;29;20537;-87
2020/12/19 03:05:25;;;;;;;22.40;14.67;;;4.30;99.90;;;;;;4953953;28;20666;-89
2020/12/19 03:07:54;;;;;;;20.90;14.03;;;4.30;99.90;;;;;;4952767;29;20430;-85
2020/12/19 03:10:44;;;;;;;21.63;14.77;;;4.30;99.90;;;;;;4936315;29;20470;-87
2020/12/19 03:13:13;;;;;;;19.43;13.77;;;4.30;99.90;;;;;;4954333;28;20438;-87
2020/12/19 03:15:58;;;;;;;20.13;13.27;;;4.40;99.90;;;;;;4955840;28;20470;-86
2020/12/19 03:18:24;;;;;;;20.90;15.23;;;4.40;99.90;;;;;;4946607;29;20533;-86
2020/12/19 03:20:53;;;;;;;20.50;14.83;;;4.50;99.90;;;;;;4953431;28;20478;-86
2020/12/19 03:23:44;;;;;;;18.07;14.33;;;4.50;99.90;;;;;;4949492;28;21369;-85
2020/12/19 03:26:23;;;;;;;21.03;13.60;;;4.40;99.90;;;;;;4952289;28;20458;-87
2020/12/19 03:29:12;;;;;;;21.00;14.70;;;4.30;99.90;;;;;;5029340;23;20459;-85
2020/12/19 03:34:37;;;;;;;21.80;14.47;;;4.00;99.90;;;;;;4968881;28;20761;-88
2020/12/19 03:37:11;;;;;;;25.67;15.00;;;3.90;99.90;;;;;;4953820;28;20504;-88
2020/12/19 03:39:40;;;;;;;22.00;15.30;;;3.80;99.90;;;;;;4950283;28;20824;-88
2020/12/19 03:42:06;;;;;;;23.63;13.90;;;3.70;99.90;;;;;;4919747;29;20914;-87
2020/12/19 03:47:44;;;;;;;24.77;14.97;;;3.70;99.90;;;;;;4947818;29;20192;-85
2020/12/19 03:50:15;;;;;;;20.63;14.30;;;3.80;99.90;;;;;;4934288;29;20466;-85
2020/12/19 03:52:41;;;;;;;20.60;14.07;;;3.70;99.90;;;;;;4948143;28;20230;-85
2020/12/19 03:55:10;;;;;;;21.47;14.57;;;3.70;99.90;;;;;;4933592;29;20809;-87
2020/12/19 03:57:47;;;;;;;21.87;14.63;;;3.80;99.90;;;;;;4934365;29;20859;-86
2020/12/19 04:00:42;;;;;;;;;;;;;;;;;;;;;
2020/12/19 04:03:11;;;;;;;19.70;14.67;;;3.70;99.90;;;;;;4944924;28;20446;-86
2020/12/19 04:06:01;;;;;;;21.33;13.60;;;3.60;99.90;;;;;;4946666;29;20475;-85
2020/12/19 04:08:29;;;;;;;20.17;14.97;;;3.50;99.90;;;;;;4948520;28;20463;-86
2020/12/19 04:11:05;;;;;;;26.43;15.83;;;3.40;99.90;;;;;;4947524;28;20439;-85
2020/12/19 04:13:39;;;;;;;24.53;16.57;;;3.40;99.90;;;;;;4933406;29;20451;-85
2020/12/19 04:16:10;;;;;;;21.03;15.10;;;3.30;99.90;;;;;;4946872;28;20685;-86
2020/12/19 04:18:36;;;;;;;22.87;15.33;;;3.30;99.90;;;;;;4946453;28;20438;-86
2020/12/19 04:21:45;;;;;;;22.40;14.93;;;3.20;99.90;;;;;;4947617;28;20538;-87
2020/12/19 04:24:13;;;;;;;22.97;14.90;;;3.00;99.90;;;;;;4947143;29;20183;-86
2020/12/19 04:26:51;;;;;;;16.00;14.10;;;2.90;99.90;;;;;;4946344;28;20528;-87
2020/12/19 04:29:33;;;;;;;;;;;;;;;;;;;;;
2020/12/19 04:32:01;;;;;;;21.60;14.17;;;2.80;99.90;;;;;;4949134;28;20443;-86
2020/12/19 04:34:36;;;;;;;26.27;16.20;;;2.70;99.90;;;;;;4946546;29;20434;-84
2020/12/19 04:37:20;;;;;;;25.37;16.37;;;2.60;99.90;;;;;;4946470;28;20480;-85
2020/12/19 04:39:48;;;;;;;27.33;16.13;;;2.50;99.90;;;;;;4945744;28;20532;-86
2020/12/19 04:42:27;;;;;;;26.13;17.10;;;2.50;99.90;;;;;;4930799;29;20462;-85
2020/12/19 04:45:08;;;;;;;24.10;15.73;;;2.50;99.90;;;;;;4943585;28;20462;-86
2020/12/19 04:47:35;;;;;;;23.60;14.73;;;2.50;99.90;;;;;;4947140;28;20449;-86
2020/12/19 04:50:04;;;;;;;30.30;18.77;;;2.40;99.90;;;;;;4948086;28;20544;-86
2020/12/19 04:52:43;;;;;;;32.00;18.23;;;2.40;99.90;;;;;;4947061;29;20422;-84
2020/12/19 04:55:14;;;;;;;28.87;18.37;;;2.50;99.90;;;;;;4945322;28;20973;-86
2020/12/19 04:58:02;;;;;;;27.67;17.10;;;2.50;99.90;;;;;;4928328;28;20555;-85
2020/12/19 05:00:37;;;;;;;26.63;18.43;;;2.50;99.90;;;;;;4946292;28;20462;-85
2020/12/19 05:03:35;;;;;;;24.40;17.47;;;2.60;99.90;;;;;;4942354;28;20450;-85
2020/12/19 05:06:14;;;;;;;30.40;18.90;;;2.60;99.90;;;;;;4939446;28;20516;-84
2020/12/19 05:11:16;;;;;;;28.33;16.83;;;2.70;99.90;;;;;;4956875;28;20512;-86
2020/12/19 05:13:50;;;;;;;27.40;18.40;;;2.80;99.90;;;;;;4920639;28;20447;-85
2020/12/19 05:16:25;;;;;;;28.97;18.33;;;2.80;99.90;;;;;;4935290;28;20507;-85
2020/12/19 05:18:53;;;;;;;27.47;17.40;;;2.90;99.90;;;;;;4936632;28;20434;-87
2020/12/19 05:21:26;;;;;;;26.40;16.93;;;2.90;99.90;;;;;;4951497;28;20459;-86
2020/12/19 05:23:58;;;;;;;29.90;17.73;;;2.80;99.90;;;;;;4980528;28;20432;-87
2020/12/19 05:26:29;;;;;;;24.60;17.10;;;2.80;99.90;;;;;;4946310;29;20463;-84
2020/12/19 05:28:59;;;;;;;29.77;17.57;;;2.90;99.90;;;;;;4948413;29;20474;-89
2020/12/19 05:31:25;;;;;;;22.00;14.87;;;2.90;99.90;;;;;;4942669;29;20447;-89
2020/12/19 05:33:53;;;;;;;25.37;16.30;;;2.80;99.90;;;;;;4935856;28;20506;-84
2020/12/19 05:36:28;;;;;;;22.87;15.77;;;2.80;99.90;;;;;;4933615;29;20213;-85
2020/12/19 05:39:26;;;;;;;24.00;16.83;;;2.80;99.90;;;;;;4942255;28;21280;-83
2020/12/19 05:41:52;;;;;;;28.83;17.27;;;2.80;99.90;;;;;;4873076;29;20945;-83
2020/12/19 05:44:27;;;;;;;18.10;14.57;;;2.80;99.90;;;;;;4928013;28;20437;-84
2020/12/19 05:46:52;;;;;;;19.33;15.57;;;2.80;99.90;;;;;;4916259;29;20472;-86
2020/12/19 05:49:21;;;;;;;25.80;17.47;;;2.80;99.90;;;;;;4912939;29;20499;-85
2020/12/19 05:51:47;;;;;;;30.67;16.90;;;2.70;99.90;;;;;;4927467;29;20667;-83
2020/12/19 05:54:22;;;;;;;27.40;17.43;;;2.70;99.90;;;;;;4944705;28;20505;-83
2020/12/19 05:56:57;;;;;;;23.90;15.93;;;2.70;99.90;;;;;;4930599;29;20843;-85
2020/12/19 05:59:24;;;;;;;23.10;15.50;;;2.70;99.90;;;;;;4958927;23;20628;-85
2020/12/19 06:01:52;;;;;;;25.27;15.67;;;2.60;99.90;;;;;;4969296;28;20653;-85
2020/12/19 06:04:34;;;;;;;23.23;15.77;;;2.60;99.90;;;;;;4952574;28;20425;-85
2020/12/19 06:07:12;;;;;;;24.47;15.10;;;2.50;99.90;;;;;;4955130;28;20437;-85
2020/12/19 06:09:42;;;;;;;25.30;16.10;;;2.40;99.90;;;;;;4959434;28;20472;-86
2020/12/19 06:12:23;;;;;;;26.10;16.57;;;2.40;99.90;;;;;;4966955;28;20464;-87
2020/12/19 06:14:54;;;;;;;29.13;17.37;;;2.30;99.90;;;;;;4965647;28;20461;-85
2020/12/19 06:17:46;;;;;;;29.73;17.37;;;2.40;99.90;;;;;;4968389;28;20473;-85
2020/12/19 06:20:14;;;;;;;24.40;16.33;;;2.40;99.90;;;;;;4963310;28;20494;-85
2020/12/19 06:22:46;;;;;;;24.83;17.33;;;2.50;99.90;;;;;;4966513;28;20448;-85
2020/12/19 06:25:12;;;;;;;20.90;15.17;;;2.50;99.90;;;;;;4949530;28;20496;-86
2020/12/19 06:27:42;;;;;;;26.53;16.40;;;2.50;99.90;;;;;;4967046;28;20437;-87
2020/12/19 06:30:30;;;;;;;23.80;15.20;;;2.50;99.90;;;;;;4967879;28;20538;-87
2020/12/19 06:33:13;;;;;;;20.90;15.40;;;2.40;99.90;;;;;;4948872;28;20442;-86
2020/12/19 06:36:17;;;;;;;21.47;15.13;;;2.40;99.90;;;;;;4964782;28;20440;-87
2020/12/19 06:38:50;;;;;;;20.43;13.07;;;2.30;99.90;;;;;;4953684;28;20449;-86
2020/12/19 06:41:44;;;;;;;22.97;12.97;;;2.20;99.90;;;;;;4966583;28;20432;-83
2020/12/19 06:44:32;;;;;;;19.97;14.60;;;2.20;99.90;;;;;;4963402;28;20445;-86
2020/12/19 06:47:18;;;;;;;27.50;14.53;;;2.00;99.90;;;;;;4964345;28;20434;-85
2020/12/19 06:49:54;;;;;;;22.87;13.77;;;2.00;99.90;;;;;;4981447;28;20632;-83
2020/12/19 06:52:46;;;;;;;22.47;14.87;;;1.90;99.90;;;;;;4965166;28;20813;-85
2020/12/19 06:55:29;;;;;;;23.83;15.93;;;1.90;99.90;;;;;;4968309;28;20469;-85
2020/12/19 06:58:02;;;;;;;26.97;16.60;;;1.90;99.90;;;;;;4966455;28;20508;-85
2020/12/19 07:00:35;;;;;;;25.30;16.43;;;1.80;99.90;;;;;;4951089;28;20515;-82
2020/12/19 07:03:05;;;;;;;32.13;17.33;;;1.80;99.90;;;;;;4967084;28;20529;-85
2020/12/19 07:06:16;;;;;;;28.80;16.33;;;1.80;99.90;;;;;;4967178;28;20433;-85
2020/12/19 07:08:42;;;;;;;24.27;15.80;;;2.00;99.90;;;;;;4954052;28;20445;-87
2020/12/19 07:11:31;;;;;;;26.57;15.20;;;1.90;99.90;;;;;;4946768;28;20551;-87
2020/12/19 07:13:57;;;;;;;25.23;14.80;;;1.90;99.90;;;;;;4964856;28;20529;-86
2020/12/19 07:16:45;;;;;;;22.27;13.90;;;2.00;99.90;;;;;;4964922;28;20821;-86
2020/12/19 07:19:20;;;;;;;24.30;15.27;;;1.90;99.90;;;;;;4967328;28;20465;-88
2020/12/19 07:21:46;;;;;;;22.77;15.30;;;2.00;99.90;;;;;;4990057;28;20436;-86
2020/12/19 07:24:20;;;;;;;24.07;14.60;;;2.00;99.90;;;;;;4989669;28;20441;-88
2020/12/19 07:26:46;;;;;;;23.67;15.87;;;2.00;99.90;;;;;;4988443;28;20436;-88
2020/12/19 07:29:20;;;;;;;25.30;16.57;;;2.00;99.90;;;;;;4986803;28;20481;-88
2020/12/19 07:31:55;;;;;;;24.60;14.87;;;2.00;99.90;;;;;;4986317;28;20425;-85
2020/12/19 07:34:30;;;;;;;34.60;19.00;;;1.90;99.90;;;;;;4986815;28;20446;-88
2020/12/19 07:37:11;;;;;;;31.77;19.90;;;2.00;99.90;;;;;;4974870;28;20487;-87
2020/12/19 07:39:37;;;;;;;30.13;19.37;;;1.90;99.90;;;;;;4989827;28;20456;-83
2020/12/19 07:42:18;;;;;;;29.50;20.23;;;1.80;99.90;;;;;;4988415;28;20431;-86
2020/12/19 07:44:50;;;;;;;32.80;19.70;;;1.80;99.90;;;;;;4976278;28;20280;-87
2020/12/19 07:47:16;;;;;;;30.03;20.90;;;1.70;99.90;;;;;;4964238;28;20451;-85
2020/12/19 07:49:42;;;;;;;35.00;21.07;;;1.70;99.90;;;;;;4966076;28;20457;-86
2020/12/19 07:52:18;;;;;;;32.90;20.60;;;1.70;99.90;;;;;;4963395;28;20240;-86
2020/12/19 07:55:04;;;;;;;35.87;20.60;;;1.80;99.90;;;;;;4972081;28;20229;-87
2020/12/19 07:57:31;;;;;;;35.13;19.33;;;1.80;99.90;;;;;;4985906;28;20489;-88
2020/12/19 08:00:03;;;;;;;30.70;21.60;;;1.80;99.90;;;;;;4988860;28;20486;-89
2020/12/19 08:02:55;;;;;;;31.37;19.00;;;1.80;99.90;;;;;;4983868;28;20444;-86
2020/12/19 08:05:27;;;;;;;39.53;21.10;;;1.90;99.90;;;;;;4983412;28;20443;-88
2020/12/19 08:07:59;;;;;;;28.57;18.57;;;2.00;99.90;;;;;;4967309;28;20435;-85
2020/12/19 08:10:25;;;;;;;32.10;19.13;;;2.10;99.90;;;;;;4984332;28;20507;-88
2020/12/19 08:12:54;;;;;;;32.47;21.23;;;2.20;99.90;;;;;;4984589;28;20434;-89
2020/12/19 08:15:39;;;;;;;30.77;20.43;;;2.30;99.90;;;;;;4968464;28;20448;-87
2020/12/19 08:18:08;;;;;;;30.70;18.37;;;2.30;99.90;;;;;;4999142;28;20524;-85
2020/12/19 08:20:41;;;;;;;36.73;20.93;;;2.30;99.90;;;;;;4985030;28;20452;-87
2020/12/19 08:23:10;;;;;;;40.20;21.60;;;2.40;99.90;;;;;;4983866;28;20454;-88
2020/12/19 08:25:41;;;;;;;38.00;22.17;;;2.40;99.90;;;;;;4977033;28;20448;-87
2020/12/19 08:28:19;;;;;;;41.57;22.27;;;2.50;99.90;;;;;;4971794;28;21119;-88
2020/12/19 08:30:45;;;;;;;35.10;20.30;;;2.60;99.90;;;;;;4970294;28;20446;-87
2020/12/19 08:33:19;;;;;;;37.07;22.13;;;2.70;99.90;;;;;;4968064;28;20519;-88
2020/12/19 08:35:45;;;;;;;34.00;21.47;;;2.70;99.90;;;;;;4967774;28;20425;-87
2020/12/19 08:38:27;;;;;;;33.97;20.77;;;2.80;99.90;;;;;;4970352;28;20465;-87
2020/12/19 08:41:00;;;;;;;35.43;20.93;;;2.80;99.90;;;;;;4968290;28;20429;-87
2020/12/19 08:43:55;;;;;;;33.07;19.63;;;3.00;99.90;;;;;;4969268;28;20422;-88
2020/12/19 08:46:31;;;;;;;32.90;18.63;;;3.20;99.90;;;;;;4968059;28;20444;-87
2020/12/19 08:49:03;;;;;;;30.70;19.47;;;3.10;99.90;;;;;;4968918;28;20466;-88
2020/12/19 08:51:31;;;;;;;36.50;20.37;;;3.20;99.90;;;;;;4972600;28;20448;-87
2020/12/19 08:54:28;;;;;;;;;;;;;;;;;;;;;
2020/12/19 08:56:54;;;;;;;31.33;21.30;;;3.30;99.90;;;;;;4969258;28;20469;-88
2020/12/19 08:59:32;;;;;;;38.20;20.70;;;3.40;99.90;;;;;;4952720;28;20936;-85
2020/12/19 09:02:12;;;;;;;39.30;22.30;;;3.40;99.90;;;;;;4970086;28;20186;-86
2020/12/19 09:04:49;;;;;;;37.40;20.33;;;3.50;99.90;;;;;;4970211;28;20449;-87
2020/12/19 09:07:15;;;;;;;33.80;20.17;;;3.60;99.90;;;;;;4971577;28;20541;-86
2020/12/19 09:09:43;;;;;;;27.70;17.37;;;3.70;99.90;;;;;;4970047;28;20485;-87
2020/12/19 09:12:18;;;;;;;33.63;20.20;;;3.70;99.90;;;;;;4966559;28;20210;-86
2020/12/19 09:14:49;;;;;;;29.00;18.40;;;3.90;99.90;;;;;;4971177;28;20441;-86
2020/12/19 09:17:31;;;;;;;31.00;18.43;;;3.90;99.90;;;;;;4969480;28;20465;-87
2020/12/19 09:20:04;;;;;;;33.87;19.47;;;4.10;99.90;;;;;;4971453;28;20441;-86
2020/12/19 09:22:30;;;;;;;28.30;18.40;;;4.20;99.90;;;;;;4969031;28;20449;-87
2020/12/19 09:24:58;;;;;;;28.47;20.03;;;4.30;99.90;;;;;;4967124;28;20453;-86
2020/12/19 09:27:27;;;;;;;30.10;18.37;;;4.50;99.90;;;;;;4971205;28;20198;-87
2020/12/19 09:29:53;;;;;;;25.77;18.57;;;4.80;99.90;;;;;;4946865;28;21001;-88
2020/12/19 09:32:21;;;;;;;26.20;19.00;;;5.20;99.90;;;;;;4947732;28;20466;-88
2020/12/19 09:34:53;;;;;;;25.00;18.23;;;5.50;99.90;;;;;;4949438;28;20921;-86
2020/12/19 09:37:18;;;;;;;27.53;20.33;;;5.80;99.90;;;;;;4954800;28;20472;-87
2020/12/19 09:39:44;;;;;;;24.70;16.80;;;6.10;99.90;;;;;;4952538;28;20458;-86
2020/12/19 09:42:10;;;;;;;26.10;18.13;;;6.40;99.90;;;;;;4969189;28;20311;-87
2020/12/19 09:44:35;;;;;;;23.90;16.00;;;6.60;99.90;;;;;;4951123;28;20247;-87
2020/12/19 09:47:01;;;;;;;21.90;15.40;;;6.80;99.90;;;;;;4934867;29;20271;-87
2020/12/19 09:49:30;;;;;;;19.63;14.00;;;7.00;99.90;;;;;;4952335;28;20211;-87
2020/12/19 09:51:56;;;;;;;19.27;15.10;;;7.20;99.90;;;;;;4951441;29;20219;-85
2020/12/19 09:54:25;;;;;;;14.27;11.83;;;7.40;99.90;;;;;;4951705;28;20446;-86
2020/12/19 09:56:50;;;;;;;13.43;11.20;;;7.50;99.90;;;;;;4951548;28;20540;-86
2020/12/19 09:59:18;;;;;;;14.50;10.90;;;7.70;99.90;;;;;;4953066;29;20454;-86
2020/12/19 10:02:00;;;;;;;13.00;10.40;;;7.80;99.90;;;;;;4952125;28;20202;-87
2020/12/19 10:04:25;;;;;;;13.87;10.73;;;8.00;99.90;;;;;;4948371;28;20438;-88
2020/12/19 10:06:54;;;;;;;13.13;10.70;;;8.10;99.90;;;;;;4935992;29;20943;-85
2020/12/19 10:09:36;;;;;;;13.73;11.33;;;8.20;99.90;;;;;;4950012;28;20226;-86
2020/12/19 10:12:31;;;;;;;11.50;9.70;;;8.30;99.90;;;;;;4938238;28;20462;-86
2020/12/19 10:15:07;;;;;;;15.67;10.83;;;8.50;99.90;;;;;;4950088;28;20531;-87
2020/12/19 10:17:33;;;;;;;11.33;9.67;;;8.60;99.90;;;;;;4948228;29;20541;-86
2020/12/19 10:20:06;;;;;;;11.67;9.03;;;8.80;99.90;;;;;;4948352;28;21172;-87
2020/12/19 10:22:35;;;;;;;13.80;10.57;;;8.90;99.90;;;;;;4949087;28;20204;-87
2020/12/19 10:25:01;;;;;;;15.27;10.80;;;9.10;99.90;;;;;;4949352;28;20423;-86
2020/12/19 10:27:27;;;;;;;12.93;10.90;;;9.20;99.90;;;;;;4954202;28;20514;-85
2020/12/19 10:30:03;;;;;;;12.10;10.80;;;9.40;99.90;;;;;;4933871;29;20538;-87
2020/12/19 10:32:34;;;;;;;13.67;10.57;;;9.40;99.90;;;;;;4966030;28;20184;-85
2020/12/19 10:35:03;;;;;;;12.50;9.43;;;9.50;99.90;;;;;;4949404;29;20438;-87
2020/12/19 10:37:35;;;;;;;12.47;9.40;;;9.50;99.90;;;;;;4951646;28;20601;-88
2020/12/19 10:40:01;;;;;;;9.53;8.37;;;9.50;99.90;;;;;;4919844;29;21006;-87
2020/12/19 10:42:27;;;;;;;10.23;9.10;;;9.60;99.90;;;;;;4935577;28;20862;-86
2020/12/19 10:44:53;;;;;;;17.40;9.97;;;9.50;99.90;;;;;;4947590;28;20518;-86
2020/12/19 10:47:21;;;;;;;11.57;8.50;;;9.60;99.90;;;;;;4948037;28;20263;-85
2020/12/19 10:49:47;;;;;;;13.60;9.30;;;9.70;99.90;;;;;;4950915;28;20454;-85
2020/12/19 10:52:13;;;;;;;11.83;9.70;;;9.80;99.90;;;;;;4948602;28;20792;-86
2020/12/19 10:54:39;;;;;;;14.40;9.87;;;9.80;99.90;;;;;;4932821;29;20454;-86
2020/12/19 10:57:05;;;;;;;16.03;10.37;;;9.80;99.90;;;;;;4939179;28;20207;-84
2020/12/19 10:59:38;;;;;;;10.40;9.30;;;9.90;99.90;;;;;;4935369;29;20216;-87
2020/12/19 11:02:09;;;;;;;12.00;10.00;;;9.90;99.90;;;;;;4955245;28;20218;-84
2020/12/19 11:04:37;;;;;;;11.27;9.77;;;9.90;99.90;;;;;;4954374;28;20466;-84
2020/12/19 11:07:12;;;;;;;10.97;9.63;;;9.90;99.90;;;;;;4937985;29;20483;-85
2020/12/19 11:09:41;;;;;;;10.70;9.60;;;9.90;99.90;;;;;;4956228;28;20454;-85
2020/12/19 11:12:09;;;;;;;12.13;9.80;;;9.90;99.90;;;;;;4956439;28;20447;-86
2020/12/19 11:14:38;;;;;;;11.97;10.60;;;9.90;99.90;;;;;;4952522;28;20501;-85
2020/12/19 11:17:04;;;;;;;11.47;10.13;;;9.80;99.90;;;;;;4950756;28;20466;-87
2020/12/19 11:19:30;;;;;;;11.50;9.20;;;9.80;99.90;;;;;;4951506;28;20458;-85
2020/12/19 11:22:12;;;;;;;10.40;9.27;;;9.60;99.90;;;;;;4955560;28;20234;-87
2020/12/19 11:24:38;;;;;;;10.20;9.10;;;9.60;99.90;;;;;;4951924;28;20651;-86
2020/12/19 11:27:03;;;;;;;17.03;10.00;;;9.40;99.90;;;;;;4953982;28;20430;-84
2020/12/19 11:29:29;;;;;;;15.27;10.30;;;9.30;99.90;;;;;;4957077;29;20199;-86
2020/12/19 11:31:58;;;;;;;13.93;10.63;;;9.10;99.90;;;;;;4954750;28;20188;-88
2020/12/19 11:34:24;;;;;;;16.33;12.97;;;9.00;99.90;;;;;;4949451;28;20186;-88
2020/12/19 11:37:21;;;;;;;21.07;12.93;;;9.00;99.90;;;;;;4950471;28;20463;-84
2020/12/19 11:39:58;;;;;;;15.30;12.33;;;9.00;99.90;;;;;;4945649;28;20202;-86
2020/12/19 11:42:23;;;;;;;13.73;10.10;;;9.10;99.90;;;;;;4934906;29;22146;-83
2020/12/19 11:45:02;;;;;;;;;;;;;;;;;;;;;
2020/12/19 11:48:05;;;;;;;12.10;10.80;;;9.30;99.90;;;;;;4948777;28;20175;-85
2020/12/19 11:50:41;;;;;;;10.93;9.73;;;9.30;99.90;;;;;;4947887;28;20557;-85
2020/12/19 11:53:27;;;;;;;;;;;;;;;;;;;;;
2020/12/19 11:56:20;;;;;;;11.00;9.77;;;9.40;99.90;;;;;;4949669;28;20465;-87
2020/12/19 11:58:55;;;;;;;14.10;10.60;;;9.50;99.90;;;;;;4945467;28;20461;-84
2020/12/19 12:01:28;;;;;;;11.00;9.27;;;9.70;99.90;;;;;;4947268;28;20494;-83
2020/12/19 12:04:00;;;;;;;10.87;9.80;;;9.70;99.90;;;;;;4947171;28;20438;-85
2020/12/19 12:06:29;;;;;;;14.27;10.70;;;9.90;99.90;;;;;;4949562;29;20441;-82
2020/12/19 12:09:27;;;;;;;12.60;9.53;;;10.00;99.90;;;;;;4951610;28;21429;-87
2020/12/19 12:12:36;;;;;;;12.00;9.90;;;10.30;99.90;;;;;;4953635;28;20426;-88
2020/12/19 12:15:21;;;;;;;12.93;10.20;;;10.50;99.90;;;;;;4887883;29;20457;-87
2020/12/19 12:17:49;;;;;;;11.30;10.10;;;10.50;99.90;;;;;;4859790;29;20525;-88
2020/12/19 12:20:21;;;;;;;10.87;9.77;;;10.70;99.90;;;;;;4934983;28;20442;-87
2020/12/19 12:22:49;;;;;;;13.17;10.20;;;10.80;99.90;;;;;;4950769;28;20458;-86
2020/12/19 12:25:18;;;;;;;12.73;10.40;;;10.90;99.90;;;;;;4948822;28;20431;-88
2020/12/19 12:27:44;;;;;;;15.00;10.90;;;11.00;99.90;;;;;;4967400;28;20448;-88
2020/12/19 12:30:17;;;;;;;15.57;10.80;;;11.00;99.90;;;;;;4952970;28;20471;-86
2020/12/19 12:32:44;;;;;;;14.40;10.77;;;11.10;99.90;;;;;;4951115;28;20226;-88
2020/12/19 12:35:28;;;;;;;17.10;10.80;;;11.20;99.90;;;;;;4953203;28;20437;-87
2020/12/19 12:37:57;;;;;;;12.33;9.80;;;11.50;99.90;;;;;;4946373;28;20462;-88
2020/12/19 12:40:28;;;;;;;11.70;10.50;;;11.20;99.90;;;;;;4947329;28;22620;-87
2020/12/19 12:42:55;;;;;;;13.07;9.20;;;11.40;99.90;;;;;;4947749;28;21569;-87
2020/12/19 12:45:20;;;;;;;10.70;9.57;;;11.60;99.90;;;;;;4950425;28;20657;-86
2020/12/19 12:47:49;;;;;;;15.63;10.50;;;11.70;99.90;;;;;;4933957;29;20451;-84
2020/12/19 12:50:22;;;;;;;10.70;9.10;;;11.80;99.90;;;;;;4946533;29;20212;-86
2020/12/19 12:52:47;;;;;;;13.80;10.80;;;11.80;99.90;;;;;;4950357;28;20805;-86
2020/12/19 12:55:15;;;;;;;13.70;9.53;;;11.70;99.90;;;;;;4950363;28;20427;-88
2020/12/19 12:57:44;;;;;;;11.80;9.60;;;11.50;99.90;;;;;;4964578;28;20214;-87
2020/12/19 13:00:10;;;;;;;10.43;8.90;;;11.60;99.90;;;;;;4946773;28;20448;-86
2020/12/19 13:02:38;;;;;;;13.20;9.83;;;11.60;99.90;;;;;;4948780;28;20945;-87
2020/12/19 13:05:20;;;;;;;13.93;9.30;;;11.50;99.90;;;;;;4948300;28;20485;-83
2020/12/19 13:07:46;;;;;;;15.13;10.37;;;11.40;99.90;;;;;;4946875;28;20795;-86
2020/12/19 13:10:11;;;;;;;14.63;10.70;;;11.50;99.90;;;;;;4948620;28;20462;-85
2020/12/19 13:12:37;;;;;;;13.07;9.90;;;11.60;99.90;;;;;;4949406;28;20660;-88
2020/12/19 13:15:28;;;;;;;12.50;10.97;;;11.90;99.90;;;;;;4951048;28;20749;-86
2020/12/19 13:18:02;;;;;;;11.97;9.67;;;12.20;99.90;;;;;;4948570;28;20243;-87
2020/12/19 13:20:29;;;;;;;13.60;11.30;;;12.20;99.90;;;;;;4945793;28;20512;-87
2020/12/19 13:22:55;;;;;;;11.30;10.03;;;12.00;99.90;;;;;;4944250;28;20435;-86
2020/12/19 13:25:26;;;;;;;13.00;10.33;;;11.80;99.90;;;;;;4961258;28;20531;-86
2020/12/19 13:27:53;;;;;;;16.30;11.80;;;11.90;99.90;;;;;;4945197;28;20558;-87
2020/12/19 13:30:19;;;;;;;14.17;11.37;;;11.70;99.90;;;;;;4946045;28;20571;-86
2020/12/19 13:32:45;;;;;;;14.53;11.33;;;11.70;99.90;;;;;;4947031;28;21103;-86
2020/12/19 13:35:11;;;;;;;12.67;11.00;;;11.70;99.90;;;;;;4947677;28;20191;-86
2020/12/19 13:37:37;;;;;;;12.93;11.60;;;11.70;99.90;;;;;;4948706;28;20467;-86
2020/12/19 13:40:08;;;;;;;12.60;11.00;;;11.60;99.90;;;;;;4946464;28;20521;-86